sensor_id;sensor_type;location;lat;lon;timestamp;pressure;altitude;pressure_sealevel;temperature;humidity
10604;BME280;5349;41.554;23.274;2023-02-02T00:01:15;99784.81;;;4.24;87.72
10604;BME280;5349;41.554;23.274;2023-02-02T00:03:42;99780.09;;;4.27;88.76
10604;BME280;5349;41.554;23.274;2023-02-02T00:06:09;99784.53;;;4.27;89.44
10604;BME280;5349;41.554;23.274;2023-02-02T00:08:37;99784.41;;;4.28;88.86
10604;BME280;5349;41.554;23.274;2023-02-02T00:11:04;99777.84;;;4.32;88.74
10604;BME280;5349;41.554;23.274;2023-02-02T00:13:31;99787.56;;;4.32;88.56
10604;BME280;5349;41.554;23.274;2023-02-02T00:16:00;99790.34;;;4.30;88.59
10604;BME280;5349;41.554;23.274;2023-02-02T00:18:43;99795.09;;;4.27;89.04
10604;BME280;5349;41.554;23.274;2023-02-02T00:21:10;99803.28;;;4.24;89.95
10604;BME280;5349;41.554;23.274;2023-02-02T00:23:38;99798.59;;;4.18;89.83
10604;BME280;5349;41.554;23.274;2023-02-02T00:26:05;99794.88;;;4.11;90.83
10604;BME280;5349;41.554;23.274;2023-02-02T00:28:31;99792.13;;;4.12;90.64
10604;BME280;5349;41.554;23.274;2023-02-02T00:31:04;99797.81;;;4.08;91.62
10604;BME280;5349;41.554;23.274;2023-02-02T00:33:31;99785.28;;;4.10;90.91
10604;BME280;5349;41.554;23.274;2023-02-02T00:35:58;99797.81;;;4.08;90.71
10604;BME280;5349;41.554;23.274;2023-02-02T00:38:25;99796.03;;;4.08;90.42
10604;BME280;5349;41.554;23.274;2023-02-02T00:40:53;99807.38;;;4.09;90.35
10604;BME280;5349;41.554;23.274;2023-02-02T00:43:20;99800.75;;;4.05;90.09
10604;BME280;5349;41.554;23.274;2023-02-02T00:45:47;99801.34;;;3.99;90.33
10604;BME280;5349;41.554;23.274;2023-02-02T00:48:13;99801.94;;;3.93;91.41
10604;BME280;5349;41.554;23.274;2023-02-02T00:50:40;99788.63;;;3.85;91.79
10604;BME280;5349;41.554;23.274;2023-02-02T00:53:07;99796.69;;;3.74;92.92
10604;BME280;5349;41.554;23.274;2023-02-02T00:55:34;99792.00;;;3.68;94.75
10604;BME280;5349;41.554;23.274;2023-02-02T00:58:02;99779.50;;;3.70;96.30
10604;BME280;5349;41.554;23.274;2023-02-02T01:00:29;99775.59;;;3.74;97.71
10604;BME280;5349;41.554;23.274;2023-02-02T01:02:56;99772.69;;;3.77;97.37
10604;BME280;5349;41.554;23.274;2023-02-02T01:05:28;99784.03;;;3.77;97.16
10604;BME280;5349;41.554;23.274;2023-02-02T01:07:55;99786.97;;;3.84;96.49
10604;BME280;5349;41.554;23.274;2023-02-02T01:10:22;99792.06;;;3.85;96.10
10604;BME280;5349;41.554;23.274;2023-02-02T01:12:49;99784.56;;;3.90;94.80
10604;BME280;5349;41.554;23.274;2023-02-02T01:15:18;99782.31;;;3.95;94.53
10604;BME280;5349;41.554;23.274;2023-02-02T01:17:44;99777.50;;;3.81;94.14
10604;BME280;5349;41.554;23.274;2023-02-02T01:20:15;99777.50;;;3.91;94.80
10604;BME280;5349;41.554;23.274;2023-02-02T01:22:42;99777.72;;;3.97;94.45
10604;BME280;5349;41.554;23.274;2023-02-02T01:25:10;99764.69;;;3.96;93.92
10604;BME280;5349;41.554;23.274;2023-02-02T01:27:36;99782.94;;;3.80;95.89
10604;BME280;5349;41.554;23.274;2023-02-02T01:30:04;99780.88;;;3.74;96.37
10604;BME280;5349;41.554;23.274;2023-02-02T01:32:33;99768.38;;;3.76;95.14
10604;BME280;5349;41.554;23.274;2023-02-02T01:34:59;99767.50;;;3.85;98.27
10604;BME280;5349;41.554;23.274;2023-02-02T01:37:26;99774.97;;;3.89;97.33
10604;BME280;5349;41.554;23.274;2023-02-02T01:39:53;99765.66;;;3.95;96.46
10604;BME280;5349;41.554;23.274;2023-02-02T01:42:21;99759.13;;;3.99;94.60
10604;BME280;5349;41.554;23.274;2023-02-02T01:47:58;99766.66;;;3.94;93.48
10604;BME280;5349;41.554;23.274;2023-02-02T01:50:31;99756.09;;;3.94;95.55
10604;BME280;5349;41.554;23.274;2023-02-02T01:53:01;99761.66;;;3.91;96.23
10604;BME280;5349;41.554;23.274;2023-02-02T01:55:30;99754.56;;;3.91;97.48
10604;BME280;5349;41.554;23.274;2023-02-02T01:58:00;99770.56;;;3.90;98.96
10604;BME280;5349;41.554;23.274;2023-02-02T02:00:29;99775.53;;;3.93;99.42
10604;BME280;5349;41.554;23.274;2023-02-02T02:02:59;99774.44;;;3.86;100.00
10604;BME280;5349;41.554;23.274;2023-02-02T02:05:32;99770.72;;;3.79;100.00
10604;BME280;5349;41.554;23.274;2023-02-02T02:08:07;99768.94;;;3.70;100.00
10604;BME280;5349;41.554;23.274;2023-02-02T02:10:35;99763.81;;;3.68;100.00
10604;BME280;5349;41.554;23.274;2023-02-02T02:13:03;99763.00;;;3.68;100.00
10604;BME280;5349;41.554;23.274;2023-02-02T02:15:34;99760.94;;;3.62;100.00
10604;BME280;5349;41.554;23.274;2023-02-02T02:18:28;99774.28;;;3.51;100.00
10604;BME280;5349;41.554;23.274;2023-02-02T02:21:24;99771.81;;;3.31;100.00
10604;BME280;5349;41.554;23.274;2023-02-02T02:31:05;99774.06;;;3.16;100.00
10604;BME280;5349;41.554;23.274;2023-02-02T02:33:44;99766.28;;;3.15;100.00
10604;BME280;5349;41.554;23.274;2023-02-02T02:36:16;99764.50;;;3.15;100.00
10604;BME280;5349;41.554;23.274;2023-02-02T02:38:49;99763.25;;;3.19;100.00
10604;BME280;5349;41.554;23.274;2023-02-02T02:41:20;99754.78;;;3.16;100.00
10604;BME280;5349;41.554;23.274;2023-02-02T02:43:51;99758.00;;;3.00;100.00
10604;BME280;5349;41.554;23.274;2023-02-02T02:46:21;99759.94;;;2.98;100.00
10604;BME280;5349;41.554;23.274;2023-02-02T02:48:50;99771.16;;;3.00;100.00
10604;BME280;5349;41.554;23.274;2023-02-02T02:51:45;99765.63;;;3.03;100.00
10604;BME280;5349;41.554;23.274;2023-02-02T02:54:16;99770.91;;;3.03;100.00
10604;BME280;5349;41.554;23.274;2023-02-02T02:56:54;99775.75;;;2.79;100.00
10604;BME280;5349;41.554;23.274;2023-02-02T02:59:32;99774.34;;;2.66;100.00
10604;BME280;5349;41.554;23.274;2023-02-02T03:02:09;99767.53;;;2.63;100.00
10604;BME280;5349;41.554;23.274;2023-02-02T03:04:47;99772.97;;;2.62;100.00
10604;BME280;5349;41.554;23.274;2023-02-02T03:07:24;99769.38;;;2.63;100.00
10604;BME280;5349;41.554;23.274;2023-02-02T03:09:53;99778.94;;;2.64;100.00
10604;BME280;5349;41.554;23.274;2023-02-02T03:12:22;99782.94;;;2.58;100.00
10604;BME280;5349;41.554;23.274;2023-02-02T03:14:49;99778.09;;;2.54;100.00
10604;BME280;5349;41.554;23.274;2023-02-02T03:17:15;99771.41;;;2.59;100.00
10604;BME280;5349;41.554;23.274;2023-02-02T03:19:44;99764.91;;;2.63;100.00
10604;BME280;5349;41.554;23.274;2023-02-02T03:22:10;99762.16;;;2.65;100.00
10604;BME280;5349;41.554;23.274;2023-02-02T03:24:37;99765.88;;;2.62;100.00
10604;BME280;5349;41.554;23.274;2023-02-02T03:27:04;99765.63;;;2.65;100.00
10604;BME280;5349;41.554;23.274;2023-02-02T03:29:31;99765.88;;;2.62;100.00
10604;BME280;5349;41.554;23.274;2023-02-02T03:31:58;99771.03;;;2.64;100.00
10604;BME280;5349;41.554;23.274;2023-02-02T03:34:25;99774.75;;;2.61;100.00
10604;BME280;5349;41.554;23.274;2023-02-02T03:36:53;99768.53;;;2.62;100.00
10604;BME280;5349;41.554;23.274;2023-02-02T03:39:20;99768.78;;;2.59;100.00
10604;BME280;5349;41.554;23.274;2023-02-02T03:41:47;99764.38;;;2.50;100.00
10604;BME280;5349;41.554;23.274;2023-02-02T03:44:13;99762.13;;;2.37;100.00
10604;BME280;5349;41.554;23.274;2023-02-02T03:46:42;99762.09;;;2.27;100.00
10604;BME280;5349;41.554;23.274;2023-02-02T03:49:09;99761.38;;;2.16;100.00
10604;BME280;5349;41.554;23.274;2023-02-02T03:51:36;99764.53;;;2.10;100.00
10604;BME280;5349;41.554;23.274;2023-02-02T03:54:04;99767.44;;;2.07;100.00
10604;BME280;5349;41.554;23.274;2023-02-02T03:56:31;99762.06;;;2.08;100.00
10604;BME280;5349;41.554;23.274;2023-02-02T03:58:58;99767.19;;;2.10;100.00
10604;BME280;5349;41.554;23.274;2023-02-02T04:01:26;99775.50;;;2.05;100.00
10604;BME280;5349;41.554;23.274;2023-02-02T04:03:54;99778.22;;;1.94;100.00
10604;BME280;5349;41.554;23.274;2023-02-02T04:06:21;99774.75;;;1.64;100.00
10604;BME280;5349;41.554;23.274;2023-02-02T04:08:51;99775.31;;;1.67;100.00
10604;BME280;5349;41.554;23.274;2023-02-02T04:11:19;99779.50;;;1.70;100.00
10604;BME280;5349;41.554;23.274;2023-02-02T04:13:45;99781.16;;;1.71;100.00
10604;BME280;5349;41.554;23.274;2023-02-02T04:16:12;99782.16;;;1.79;100.00
10604;BME280;5349;41.554;23.274;2023-02-02T04:18:39;99780.53;;;1.88;100.00
10604;BME280;5349;41.554;23.274;2023-02-02T04:21:06;99780.00;;;1.94;100.00
10604;BME280;5349;41.554;23.274;2023-02-02T04:23:34;99779.44;;;1.90;100.00
10604;BME280;5349;41.554;23.274;2023-02-02T04:26:01;99775.97;;;1.90;100.00
10604;BME280;5349;41.554;23.274;2023-02-02T04:28:30;99778.06;;;1.96;100.00
10604;BME280;5349;41.554;23.274;2023-02-02T04:30:57;99772.16;;;2.03;100.00
10604;BME280;5349;41.554;23.274;2023-02-02T04:33:25;99764.69;;;2.08;100.00
10604;BME280;5349;41.554;23.274;2023-02-02T04:35:53;99768.28;;;2.07;100.00
10604;BME280;5349;41.554;23.274;2023-02-02T04:38:20;99750.63;;;1.89;100.00
10604;BME280;5349;41.554;23.274;2023-02-02T04:40:47;99739.28;;;1.79;100.00
10604;BME280;5349;41.554;23.274;2023-02-02T04:43:14;99787.53;;;2.08;100.00
10604;BME280;5349;41.554;23.274;2023-02-02T04:45:42;99785.88;;;2.07;100.00
10604;BME280;5349;41.554;23.274;2023-02-02T04:48:09;99786.66;;;1.98;100.00
10604;BME280;5349;41.554;23.274;2023-02-02T04:50:36;99792.19;;;1.95;100.00
10604;BME280;5349;41.554;23.274;2023-02-02T04:53:03;99784.38;;;1.84;100.00
10604;BME280;5349;41.554;23.274;2023-02-02T04:55:35;99790.72;;;1.72;100.00
10604;BME280;5349;41.554;23.274;2023-02-02T04:58:02;99783.75;;;1.41;100.00
10604;BME280;5349;41.554;23.274;2023-02-02T05:00:29;99807.41;;;1.41;100.00
10604;BME280;5349;41.554;23.274;2023-02-02T05:02:57;99806.25;;;1.34;100.00
10604;BME280;5349;41.554;23.274;2023-02-02T05:05:24;99805.53;;;1.32;100.00
10604;BME280;5349;41.554;23.274;2023-02-02T05:07:51;99813.56;;;1.30;100.00
10604;BME280;5349;41.554;23.274;2023-02-02T05:10:18;99811.06;;;1.29;100.00
10604;BME280;5349;41.554;23.274;2023-02-02T05:12:44;99814.19;;;1.23;100.00
10604;BME280;5349;41.554;23.274;2023-02-02T05:15:11;99821.13;;;1.24;100.00
10604;BME280;5349;41.554;23.274;2023-02-02T05:17:38;99809.66;;;1.25;100.00
10604;BME280;5349;41.554;23.274;2023-02-02T05:20:08;99813.81;;;1.27;100.00
10604;BME280;5349;41.554;23.274;2023-02-02T05:22:35;99819.38;;;1.34;100.00
10604;BME280;5349;41.554;23.274;2023-02-02T05:25:01;99821.91;;;1.35;100.00
10604;BME280;5349;41.554;23.274;2023-02-02T05:27:28;99828.88;;;1.25;100.00
10604;BME280;5349;41.554;23.274;2023-02-02T05:29:55;99829.19;;;1.32;100.00
10604;BME280;5349;41.554;23.274;2023-02-02T05:32:22;99801.41;;;1.09;100.00
10604;BME280;5349;41.554;23.274;2023-02-02T05:34:49;99832.94;;;1.29;100.00
10604;BME280;5349;41.554;23.274;2023-02-02T05:37:17;99820.34;;;1.33;100.00
10604;BME280;5349;41.554;23.274;2023-02-02T05:39:44;99823.31;;;1.39;100.00
10604;BME280;5349;41.554;23.274;2023-02-02T05:42:11;99834.28;;;1.44;100.00
10604;BME280;5349;41.554;23.274;2023-02-02T05:44:37;99836.50;;;1.49;100.00
10604;BME280;5349;41.554;23.274;2023-02-02T05:47:04;99837.66;;;1.56;100.00
10604;BME280;5349;41.554;23.274;2023-02-02T05:49:31;99837.16;;;1.62;100.00
10604;BME280;5349;41.554;23.274;2023-02-02T05:51:58;99844.13;;;1.72;100.00
10604;BME280;5349;41.554;23.274;2023-02-02T05:54:26;99854.38;;;1.75;100.00
10604;BME280;5349;41.554;23.274;2023-02-02T05:56:53;99854.13;;;1.78;100.00
10604;BME280;5349;41.554;23.274;2023-02-02T05:59:21;99862.16;;;1.77;100.00
10604;BME280;5349;41.554;23.274;2023-02-02T06:01:48;99859.13;;;1.81;100.00
10604;BME280;5349;41.554;23.274;2023-02-02T06:04:15;99859.75;;;1.94;100.00
10604;BME280;5349;41.554;23.274;2023-02-02T06:06:42;99841.72;;;1.90;100.00
10604;BME280;5349;41.554;23.274;2023-02-02T06:09:10;99869.78;;;2.10;100.00
10604;BME280;5349;41.554;23.274;2023-02-02T06:11:38;99820.38;;;1.83;100.00
10604;BME280;5349;41.554;23.274;2023-02-02T06:14:05;99879.28;;;2.31;100.00
10604;BME280;5349;41.554;23.274;2023-02-02T06:16:33;99881.00;;;2.41;100.00
10604;BME280;5349;41.554;23.274;2023-02-02T06:18:59;99883.47;;;2.43;100.00
10604;BME280;5349;41.554;23.274;2023-02-02T06:21:26;99872.13;;;2.42;100.00
10604;BME280;5349;41.554;23.274;2023-02-02T06:23:56;99887.16;;;2.61;100.00
10604;BME280;5349;41.554;23.274;2023-02-02T06:26:22;99899.78;;;2.67;100.00
10604;BME280;5349;41.554;23.274;2023-02-02T06:28:52;99892.03;;;2.75;100.00
10604;BME280;5349;41.554;23.274;2023-02-02T06:31:20;99872.75;;;2.65;100.00
10604;BME280;5349;41.554;23.274;2023-02-02T06:33:47;99894.00;;;2.92;100.00
10604;BME280;5349;41.554;23.274;2023-02-02T06:36:17;99894.16;;;3.00;100.00
10604;BME280;5349;41.554;23.274;2023-02-02T06:38:47;99896.81;;;3.09;100.00
10604;BME280;5349;41.554;23.274;2023-02-02T06:41:14;99908.31;;;3.18;100.00
10604;BME280;5349;41.554;23.274;2023-02-02T06:43:41;99915.00;;;3.31;100.00
10604;BME280;5349;41.554;23.274;2023-02-02T06:46:09;99920.69;;;3.46;100.00
10604;BME280;5349;41.554;23.274;2023-02-02T06:48:36;99923.06;;;3.58;100.00
10604;BME280;5349;41.554;23.274;2023-02-02T06:51:04;99913.31;;;3.68;100.00
10604;BME280;5349;41.554;23.274;2023-02-02T06:53:31;99891.81;;;3.63;100.00
10604;BME280;5349;41.554;23.274;2023-02-02T06:55:59;99903.59;;;3.78;100.00
10604;BME280;5349;41.554;23.274;2023-02-02T06:58:27;99897.59;;;3.85;100.00
10604;BME280;5349;41.554;23.274;2023-02-02T07:00:59;99896.34;;;3.89;100.00
10604;BME280;5349;41.554;23.274;2023-02-02T07:03:30;99904.13;;;3.91;99.85
10604;BME280;5349;41.554;23.274;2023-02-02T07:05:56;99901.47;;;4.00;98.74
10604;BME280;5349;41.554;23.274;2023-02-02T07:08:23;99860.66;;;3.85;98.22
10604;BME280;5349;41.554;23.274;2023-02-02T07:10:50;99895.97;;;4.21;97.81
10604;BME280;5349;41.554;23.274;2023-02-02T07:13:17;99905.69;;;4.30;96.64
10604;BME280;5349;41.554;23.274;2023-02-02T07:15:44;99899.13;;;4.34;96.89
10604;BME280;5349;41.554;23.274;2023-02-02T07:18:10;99908.66;;;4.44;97.48
10604;BME280;5349;41.554;23.274;2023-02-02T07:20:39;99908.94;;;4.51;97.40
10604;BME280;5349;41.554;23.274;2023-02-02T07:23:05;99912.28;;;4.53;97.35
10604;BME280;5349;41.554;23.274;2023-02-02T07:25:32;99918.94;;;4.57;97.27
10604;BME280;5349;41.554;23.274;2023-02-02T07:27:59;99912.50;;;4.59;97.37
10604;BME280;5349;41.554;23.274;2023-02-02T07:30:26;99923.94;;;4.60;97.94
10604;BME280;5349;41.554;23.274;2023-02-02T07:32:54;99920.00;;;4.64;98.05
10604;BME280;5349;41.554;23.274;2023-02-02T07:35:21;99920.78;;;4.73;98.45
10604;BME280;5349;41.554;23.274;2023-02-02T07:37:51;99920.88;;;4.81;96.62
10604;BME280;5349;41.554;23.274;2023-02-02T07:40:19;99919.44;;;4.70;96.44
10604;BME280;5349;41.554;23.274;2023-02-02T07:42:46;99903.94;;;4.74;96.71
10604;BME280;5349;41.554;23.274;2023-02-02T07:45:13;99906.84;;;4.81;97.30
10604;BME280;5349;41.554;23.274;2023-02-02T07:47:40;99919.41;;;4.96;97.15
10604;BME280;5349;41.554;23.274;2023-02-02T07:50:08;99915.56;;;5.08;96.16
10604;BME280;5349;41.554;23.274;2023-02-02T07:52:35;99916.56;;;5.25;95.00
10604;BME280;5349;41.554;23.274;2023-02-02T07:55:04;99912.03;;;5.35;93.22
10604;BME280;5349;41.554;23.274;2023-02-02T07:57:31;99909.09;;;5.38;91.33
10604;BME280;5349;41.554;23.274;2023-02-02T07:59:58;99908.72;;;5.50;90.80
10604;BME280;5349;41.554;23.274;2023-02-02T08:02:25;99902.81;;;5.56;88.73
10604;BME280;5349;41.554;23.274;2023-02-02T08:04:52;99909.53;;;5.68;87.91
10604;BME280;5349;41.554;23.274;2023-02-02T08:07:18;99905.03;;;5.78;86.89
10604;BME280;5349;41.554;23.274;2023-02-02T08:09:49;99882.94;;;5.70;85.76
10604;BME280;5349;41.554;23.274;2023-02-02T08:12:17;99904.53;;;6.00;84.00
10604;BME280;5349;41.554;23.274;2023-02-02T08:14:45;99902.13;;;6.14;83.44
10604;BME280;5349;41.554;23.274;2023-02-02T08:17:12;99905.03;;;6.29;81.73
10604;BME280;5349;41.554;23.274;2023-02-02T08:19:39;99902.13;;;6.40;80.24
10604;BME280;5349;41.554;23.274;2023-02-02T08:22:06;99897.13;;;6.37;76.97
10604;BME280;5349;41.554;23.274;2023-02-02T08:24:33;99899.28;;;6.33;77.07
10604;BME280;5349;41.554;23.274;2023-02-02T08:27:05;99894.78;;;6.34;77.69
10604;BME280;5349;41.554;23.274;2023-02-02T08:29:33;99883.56;;;6.40;78.14
10604;BME280;5349;41.554;23.274;2023-02-02T08:32:00;99890.97;;;6.62;77.48
10604;BME280;5349;41.554;23.274;2023-02-02T08:34:27;99882.25;;;6.77;77.10
10604;BME280;5349;41.554;23.274;2023-02-02T08:36:54;99891.91;;;6.94;78.87
10604;BME280;5349;41.554;23.274;2023-02-02T08:39:21;99888.97;;;7.05;77.17
10604;BME280;5349;41.554;23.274;2023-02-02T08:41:48;99882.38;;;7.17;75.93
10604;BME280;5349;41.554;23.274;2023-02-02T08:44:15;99880.56;;;7.25;75.82
10604;BME280;5349;41.554;23.274;2023-02-02T08:46:43;99879.56;;;7.34;75.98
10604;BME280;5349;41.554;23.274;2023-02-02T08:49:11;99860.28;;;7.09;74.42
10604;BME280;5349;41.554;23.274;2023-02-02T08:51:38;99885.38;;;7.22;74.64
10604;BME280;5349;41.554;23.274;2023-02-02T08:54:05;99872.94;;;7.30;75.07
10604;BME280;5349;41.554;23.274;2023-02-02T08:56:32;99873.28;;;7.43;74.25
10604;BME280;5349;41.554;23.274;2023-02-02T08:58:59;99866.16;;;7.52;73.03
10604;BME280;5349;41.554;23.274;2023-02-02T09:01:28;99860.34;;;7.64;72.34
10604;BME280;5349;41.554;23.274;2023-02-02T09:03:59;99859.84;;;7.69;72.17
10604;BME280;5349;41.554;23.274;2023-02-02T09:06:29;99855.69;;;7.82;72.15
10604;BME280;5349;41.554;23.274;2023-02-02T09:08:56;99849.03;;;7.94;70.97
10604;BME280;5349;41.554;23.274;2023-02-02T09:11:23;99854.66;;;7.99;72.14
10604;BME280;5349;41.554;23.274;2023-02-02T09:13:54;99841.03;;;8.10;71.29
10604;BME280;5349;41.554;23.274;2023-02-02T09:16:22;99847.50;;;8.24;70.89
10604;BME280;5349;41.554;23.274;2023-02-02T09:18:49;99846.47;;;8.33;71.18
10604;BME280;5349;41.554;23.274;2023-02-02T09:21:18;99832.63;;;8.45;69.38
10604;BME280;5349;41.554;23.274;2023-02-02T09:23:46;99813.78;;;8.32;67.97
10604;BME280;5349;41.554;23.274;2023-02-02T09:26:15;99833.25;;;8.55;67.34
10604;BME280;5349;41.554;23.274;2023-02-02T09:28:44;99826.44;;;8.60;67.75
10604;BME280;5349;41.554;23.274;2023-02-02T09:31:11;99827.19;;;8.77;67.25
10604;BME280;5349;41.554;23.274;2023-02-02T09:33:38;99822.47;;;8.87;66.54
10604;BME280;5349;41.554;23.274;2023-02-02T09:36:07;99818.13;;;8.94;67.69
10604;BME280;5349;41.554;23.274;2023-02-02T09:38:36;99808.44;;;9.01;65.98
10604;BME280;5349;41.554;23.274;2023-02-02T09:41:21;99806.47;;;9.17;65.18
10604;BME280;5349;41.554;23.274;2023-02-02T09:44:01;99797.50;;;9.18;62.97
10604;BME280;5349;41.554;23.274;2023-02-02T09:46:36;99794.63;;;9.20;60.60
10604;BME280;5349;41.554;23.274;2023-02-02T09:49:10;99788.25;;;9.29;62.98
10604;BME280;5349;41.554;23.274;2023-02-02T09:51:40;99783.56;;;9.31;61.39
10604;BME280;5349;41.554;23.274;2023-02-02T09:54:16;99768.75;;;9.36;60.60
10604;BME280;5349;41.554;23.274;2023-02-02T09:56:47;99777.16;;;9.03;60.10
10604;BME280;5349;41.554;23.274;2023-02-02T09:59:21;99758.94;;;9.14;59.70
10604;BME280;5349;41.554;23.274;2023-02-02T10:01:51;99771.13;;;9.31;59.72
10604;BME280;5349;41.554;23.274;2023-02-02T10:04:22;99756.28;;;9.51;58.76
10604;BME280;5349;41.554;23.274;2023-02-02T10:06:55;99759.69;;;9.60;58.18
10604;BME280;5349;41.554;23.274;2023-02-02T10:09:32;99749.06;;;9.74;57.60
10604;BME280;5349;41.554;23.274;2023-02-02T10:12:04;99752.47;;;9.82;54.96
10604;BME280;5349;41.554;23.274;2023-02-02T10:14:34;99748.97;;;9.96;55.52
10604;BME280;5349;41.554;23.274;2023-02-02T10:17:12;99744.50;;;10.11;55.51
10604;BME280;5349;41.554;23.274;2023-02-02T10:19:43;99741.41;;;10.08;53.99
10604;BME280;5349;41.554;23.274;2023-02-02T10:22:13;99733.94;;;10.18;53.52
10604;BME280;5349;41.554;23.274;2023-02-02T10:24:44;99728.41;;;10.19;53.33
10604;BME280;5349;41.554;23.274;2023-02-02T10:27:14;99726.94;;;10.31;53.25
10604;BME280;5349;41.554;23.274;2023-02-02T10:29:50;99724.16;;;10.39;53.99
10604;BME280;5349;41.554;23.274;2023-02-02T10:32:23;99724.69;;;10.49;53.69
10604;BME280;5349;41.554;23.274;2023-02-02T10:35:01;99716.38;;;10.59;51.14
10604;BME280;5349;41.554;23.274;2023-02-02T10:37:33;99707.25;;;10.68;50.88
10604;BME280;5349;41.554;23.274;2023-02-02T10:40:25;99696.47;;;10.76;51.12
10604;BME280;5349;41.554;23.274;2023-02-02T10:43:13;99698.25;;;10.89;50.64
10604;BME280;5349;41.554;23.274;2023-02-02T10:45:59;99668.81;;;10.83;50.41
10604;BME280;5349;41.554;23.274;2023-02-02T10:48:30;99694.75;;;11.10;49.92
10604;BME280;5349;41.554;23.274;2023-02-02T10:51:02;99685.38;;;11.20;50.84
10604;BME280;5349;41.554;23.274;2023-02-02T10:53:32;99689.06;;;11.19;48.74
10604;BME280;5349;41.554;23.274;2023-02-02T10:56:03;99683.41;;;11.29;49.60
10604;BME280;5349;41.554;23.274;2023-02-02T10:58:38;99687.75;;;11.09;48.37
10604;BME280;5349;41.554;23.274;2023-02-02T11:01:07;99678.84;;;11.02;49.45
10604;BME280;5349;41.554;23.274;2023-02-02T11:03:37;99672.84;;;11.21;48.40
10604;BME280;5349;41.554;23.274;2023-02-02T11:06:06;99666.00;;;11.39;48.22
10604;BME280;5349;41.554;23.274;2023-02-02T11:08:51;99663.75;;;11.64;48.17
10604;BME280;5349;41.554;23.274;2023-02-02T11:11:28;99666.50;;;11.77;46.72
10604;BME280;5349;41.554;23.274;2023-02-02T11:14:00;99665.38;;;11.99;46.56
10604;BME280;5349;41.554;23.274;2023-02-02T11:16:28;99653.56;;;12.27;46.29
10604;BME280;5349;41.554;23.274;2023-02-02T11:18:56;99651.56;;;12.48;46.31
10604;BME280;5349;41.554;23.274;2023-02-02T11:21:25;99635.75;;;12.66;46.54
10604;BME280;5349;41.554;23.274;2023-02-02T11:23:55;99628.34;;;12.81;46.27
10604;BME280;5349;41.554;23.274;2023-02-02T11:26:24;99629.84;;;12.97;44.90
10604;BME280;5349;41.554;23.274;2023-02-02T11:28:53;99616.06;;;13.00;44.21
10604;BME280;5349;41.554;23.274;2023-02-02T11:31:34;99623.88;;;13.14;44.02
10604;BME280;5349;41.554;23.274;2023-02-02T11:34:11;99616.66;;;13.21;44.34
10604;BME280;5349;41.554;23.274;2023-02-02T11:36:57;99609.66;;;13.20;44.89
10604;BME280;5349;41.554;23.274;2023-02-02T11:39:24;99599.13;;;13.25;45.52
10604;BME280;5349;41.554;23.274;2023-02-02T11:41:58;99605.53;;;13.24;44.23
10604;BME280;5349;41.554;23.274;2023-02-02T11:44:26;99597.28;;;13.13;44.04
10604;BME280;5349;41.554;23.274;2023-02-02T11:46:53;99595.88;;;13.04;44.51
10604;BME280;5349;41.554;23.274;2023-02-02T11:49:22;99592.75;;;13.00;45.33
10604;BME280;5349;41.554;23.274;2023-02-02T11:51:57;99593.41;;;12.96;44.91
10604;BME280;5349;41.554;23.274;2023-02-02T11:54:27;99591.31;;;13.04;44.94
10604;BME280;5349;41.554;23.274;2023-02-02T11:56:58;99582.22;;;13.12;44.16
10604;BME280;5349;41.554;23.274;2023-02-02T11:59:29;99587.41;;;13.13;44.26
10604;BME280;5349;41.554;23.274;2023-02-02T12:02:26;99584.94;;;13.18;43.35
10604;BME280;5349;41.554;23.274;2023-02-02T12:04:55;99576.25;;;13.23;43.71
10604;BME280;5349;41.554;23.274;2023-02-02T12:07:38;99574.59;;;13.41;44.54
10604;BME280;5349;41.554;23.274;2023-02-02T12:10:13;99572.06;;;13.52;43.36
10604;BME280;5349;41.554;23.274;2023-02-02T12:12:50;99566.69;;;13.59;43.54
10604;BME280;5349;41.554;23.274;2023-02-02T12:15:26;99564.59;;;13.67;42.48
10604;BME280;5349;41.554;23.274;2023-02-02T12:18:03;99562.78;;;13.55;42.80
10604;BME280;5349;41.554;23.274;2023-02-02T12:20:40;99556.19;;;13.51;42.83
10604;BME280;5349;41.554;23.274;2023-02-02T12:23:26;99560.13;;;13.48;42.25
10604;BME280;5349;41.554;23.274;2023-02-02T12:26:16;99561.97;;;13.48;42.16
10604;BME280;5349;41.554;23.274;2023-02-02T12:29:13;99553.09;;;13.54;42.48
10604;BME280;5349;41.554;23.274;2023-02-02T12:31:59;99560.50;;;13.52;42.19
10604;BME280;5349;41.554;23.274;2023-02-02T12:34:39;99553.53;;;13.44;41.62
10604;BME280;5349;41.554;23.274;2023-02-02T12:37:17;99551.47;;;13.46;40.27
10604;BME280;5349;41.554;23.274;2023-02-02T12:40:02;99534.03;;;13.12;41.31
10604;BME280;5349;41.554;23.274;2023-02-02T12:42:40;99547.66;;;12.71;42.75
10604;BME280;5349;41.554;23.274;2023-02-02T12:45:33;99535.06;;;12.46;43.14
10604;BME280;5349;41.554;23.274;2023-02-02T12:48:15;99534.25;;;12.32;44.14
10604;BME280;5349;41.554;23.274;2023-02-02T12:50:57;99527.47;;;12.30;43.94
10604;BME280;5349;41.554;23.274;2023-02-02T12:53:39;99520.03;;;12.25;43.39
10604;BME280;5349;41.554;23.274;2023-02-02T12:56:17;99523.97;;;12.55;43.17
10604;BME280;5349;41.554;23.274;2023-02-02T12:58:54;99520.03;;;12.77;42.69
10604;BME280;5349;41.554;23.274;2023-02-02T13:01:35;99514.28;;;12.93;41.51
10604;BME280;5349;41.554;23.274;2023-02-02T13:07:29;99506.88;;;12.95;41.27
10604;BME280;5349;41.554;23.274;2023-02-02T13:10:03;99504.19;;;12.82;42.13
10604;BME280;5349;41.554;23.274;2023-02-02T13:12:35;99495.72;;;12.85;42.00
10604;BME280;5349;41.554;23.274;2023-02-02T13:15:07;99481.53;;;12.85;41.65
10604;BME280;5349;41.554;23.274;2023-02-02T13:17:44;99484.44;;;12.96;42.44
10604;BME280;5349;41.554;23.274;2023-02-02T13:20:19;99478.47;;;13.01;41.36
10604;BME280;5349;41.554;23.274;2023-02-02T13:22:51;99481.13;;;13.07;40.22
10604;BME280;5349;41.554;23.274;2023-02-02T13:25:22;99461.16;;;12.97;40.67
10604;BME280;5349;41.554;23.274;2023-02-02T13:27:50;99481.69;;;13.22;40.84
10604;BME280;5349;41.554;23.274;2023-02-02T13:30:27;99472.38;;;13.31;39.39
10604;BME280;5349;41.554;23.274;2023-02-02T13:33:00;99481.22;;;13.38;39.82
10604;BME280;5349;41.554;23.274;2023-02-02T13:35:30;99474.16;;;13.50;40.26